createdAt,value
2023-05-16T00:01:45.543Z,5.63
2023-05-16T00:04:13.407Z,5.17
2023-05-16T00:06:41.041Z,5.83
2023-05-16T00:09:08.447Z,6.23
2023-05-16T00:11:37.196Z,6.43
2023-05-16T00:14:05.157Z,5.90
2023-05-16T00:16:32.965Z,5.77
2023-05-16T00:19:00.958Z,5.87
2023-05-16T00:21:28.604Z,6.37
2023-05-16T00:23:55.944Z,5.70
2023-05-16T00:26:23.286Z,5.73
2023-05-16T00:28:52.012Z,5.87
2023-05-16T00:31:19.487Z,6.07
2023-05-16T00:33:46.948Z,6.07
2023-05-16T00:36:14.350Z,6.00
2023-05-16T00:38:41.744Z,5.73
2023-05-16T00:41:09.170Z,6.27
2023-05-16T00:43:37.656Z,5.93
2023-05-16T00:46:06.586Z,6.20
2023-05-16T00:48:35.679Z,6.47
2023-05-16T00:51:03.808Z,6.37
2023-05-16T00:53:31.251Z,5.73
2023-05-16T00:55:58.998Z,6.03
2023-05-16T00:58:26.577Z,5.70
2023-05-16T01:00:53.995Z,5.50
2023-05-16T01:03:25.712Z,6.07
2023-05-16T01:05:53.652Z,6.00
2023-05-16T01:08:21.637Z,5.20
2023-05-16T01:10:53.075Z,6.07
2023-05-16T01:13:25.417Z,5.90
2023-05-16T01:15:57.454Z,5.87
2023-05-16T01:18:42.914Z,6.23
2023-05-16T01:21:13.675Z,6.50
2023-05-16T01:23:45.030Z,6.90
2023-05-16T01:26:16.161Z,6.17
2023-05-16T01:28:45.281Z,6.27
2023-05-16T01:31:12.928Z,6.23
2023-05-16T01:33:40.382Z,6.67
2023-05-16T01:36:12.038Z,6.67
2023-05-16T01:38:43.307Z,6.50
2023-05-16T01:41:16.112Z,6.63
2023-05-16T01:43:45.952Z,7.00
2023-05-16T01:46:15.031Z,7.07
2023-05-16T01:48:45.572Z,7.17
2023-05-16T01:51:13.944Z,7.00
2023-05-16T01:53:42.320Z,6.53
2023-05-16T01:56:10.941Z,7.70
2023-05-16T01:58:38.413Z,7.10
2023-05-16T02:01:07.491Z,6.60
2023-05-16T02:03:35.337Z,6.80
2023-05-16T02:06:02.786Z,6.50
2023-05-16T02:08:30.364Z,6.50
2023-05-16T02:10:57.735Z,5.80
2023-05-16T02:13:25.138Z,5.93
2023-05-16T02:15:52.979Z,6.00
2023-05-16T02:18:23.569Z,6.03
2023-05-16T02:20:51.232Z,6.70
2023-05-16T02:23:18.730Z,6.83
2023-05-16T02:25:46.179Z,6.37
2023-05-16T02:28:13.627Z,6.43
2023-05-16T02:30:41.414Z,6.60
2023-05-16T02:33:08.993Z,6.37
2023-05-16T02:35:37.777Z,7.33
2023-05-16T02:38:05.444Z,6.80
2023-05-16T02:40:32.851Z,7.10
2023-05-16T02:43:00.296Z,7.00
2023-05-16T02:45:28.865Z,7.37
2023-05-16T02:47:56.425Z,7.23
2023-05-16T02:50:23.836Z,7.53
2023-05-16T02:52:52.653Z,7.40
2023-05-16T02:55:22.429Z,7.30
2023-05-16T02:57:50.604Z,6.93
2023-05-16T03:00:18.803Z,7.00
2023-05-16T03:02:46.920Z,6.60
2023-05-16T03:05:14.493Z,7.10
2023-05-16T03:07:42.031Z,6.83
2023-05-16T03:10:11.230Z,7.20
2023-05-16T03:12:39.256Z,6.90
2023-05-16T03:15:09.138Z,7.73
2023-05-16T03:17:37.293Z,7.87
2023-05-16T03:20:05.196Z,7.67
2023-05-16T03:22:32.623Z,7.73
2023-05-16T03:25:00.010Z,7.60
2023-05-16T03:27:29.716Z,7.90
2023-05-16T03:29:57.178Z,7.80
2023-05-16T03:32:24.670Z,7.37
2023-05-16T03:34:52.179Z,8.43
2023-05-16T03:37:19.617Z,7.77
2023-05-16T03:39:47.116Z,7.80
2023-05-16T03:42:14.552Z,9.07
2023-05-16T03:44:43.320Z,7.97
2023-05-16T03:47:10.855Z,8.43
2023-05-16T03:49:38.230Z,8.30
2023-05-16T03:52:05.952Z,8.07
2023-05-16T03:54:33.683Z,7.53
2023-05-16T03:57:01.741Z,8.40
2023-05-16T03:59:29.172Z,7.67
2023-05-16T04:01:57.936Z,7.70
2023-05-16T04:04:25.964Z,7.87
2023-05-16T04:06:53.448Z,8.07
2023-05-16T04:09:20.873Z,6.30
2023-05-16T04:11:48.372Z,6.50
2023-05-16T04:14:15.992Z,6.40
2023-05-16T04:16:43.514Z,7.07
2023-05-16T04:19:12.473Z,7.10
2023-05-16T04:21:39.937Z,7.47
2023-05-16T04:24:08.054Z,7.97
2023-05-16T04:26:35.685Z,8.37
2023-05-16T04:29:03.231Z,7.53
2023-05-16T04:31:31.127Z,8.10
2023-05-16T04:33:58.665Z,8.03
2023-05-16T04:36:30.008Z,7.93
2023-05-16T04:38:57.516Z,8.90
2023-05-16T04:41:25.263Z,10.07
2023-05-16T04:43:53.634Z,9.83
2023-05-16T04:46:21.861Z,10.03
2023-05-16T04:48:49.294Z,10.07
2023-05-16T04:51:16.705Z,9.83
2023-05-16T04:53:45.435Z,10.70
2023-05-16T04:56:12.873Z,10.77
2023-05-16T04:58:42.742Z,11.37
2023-05-16T05:01:10.320Z,11.77
2023-05-16T05:03:37.755Z,10.63
2023-05-16T05:06:05.406Z,10.23
2023-05-16T05:08:32.928Z,9.40
2023-05-16T05:11:01.774Z,9.23
2023-05-16T05:13:29.312Z,9.00
2023-05-16T05:15:56.701Z,8.97
2023-05-16T05:18:24.191Z,9.20
2023-05-16T05:20:52.622Z,10.13
2023-05-16T05:23:20.770Z,9.70
2023-05-16T05:25:48.253Z,10.37
2023-05-16T05:28:17.085Z,10.90
2023-05-16T05:30:44.487Z,10.57
2023-05-16T05:33:12.382Z,10.00
2023-05-16T05:35:39.827Z,9.80
2023-05-16T05:38:07.206Z,9.37
2023-05-16T05:40:34.906Z,9.03
2023-05-16T05:43:02.371Z,10.03
2023-05-16T05:45:31.227Z,9.90
2023-05-16T05:47:58.785Z,9.77
2023-05-16T05:50:26.199Z,10.00
2023-05-16T05:52:53.594Z,10.07
2023-05-16T05:55:21.151Z,9.40
2023-05-16T05:57:48.613Z,9.77
2023-05-16T06:00:16.245Z,9.17
2023-05-16T06:02:45.225Z,9.20
2023-05-16T06:05:12.834Z,9.77
2023-05-16T06:07:40.318Z,9.50
2023-05-16T06:10:08.637Z,8.33
2023-05-16T06:12:36.239Z,9.00
2023-05-16T06:15:03.628Z,9.67
2023-05-16T06:17:31.124Z,8.37
2023-05-16T06:20:00.103Z,8.77
2023-05-16T06:22:28.049Z,8.23
2023-05-16T06:24:55.718Z,8.33
2023-05-16T06:27:23.222Z,8.50
2023-05-16T06:29:50.667Z,7.70
2023-05-16T06:32:18.132Z,8.27
2023-05-16T06:34:45.559Z,9.27
2023-05-16T06:37:14.340Z,9.27
2023-05-16T06:39:41.720Z,9.53
2023-05-16T06:42:09.203Z,8.90
2023-05-16T06:44:38.230Z,9.83
2023-05-16T06:47:05.998Z,10.30
2023-05-16T06:49:33.908Z,10.40
2023-05-16T06:52:01.537Z,10.33
2023-05-16T06:54:30.365Z,10.87
2023-05-16T06:56:57.866Z,11.53
2023-05-16T06:59:27.441Z,11.27
2023-05-16T07:01:55.568Z,10.77
2023-05-16T07:04:23.134Z,11.60
2023-05-16T07:06:50.583Z,11.97
2023-05-16T07:09:18.040Z,11.40
2023-05-16T07:11:46.916Z,11.60
2023-05-16T07:14:14.426Z,11.50
2023-05-16T07:16:42.002Z,10.90
2023-05-16T07:19:09.597Z,11.07
2023-05-16T07:21:37.141Z,11.50
2023-05-16T07:24:04.890Z,11.43
2023-05-16T07:26:32.337Z,12.37
2023-05-16T07:29:02.718Z,12.60
2023-05-16T07:31:31.091Z,12.80
2023-05-16T07:33:58.659Z,13.03
2023-05-16T07:36:26.173Z,14.73
2023-05-16T07:38:53.665Z,14.37
2023-05-16T07:41:21.566Z,15.67
2023-05-16T07:43:49.092Z,14.80
2023-05-16T07:46:18.111Z,16.07
2023-05-16T07:48:45.593Z,15.27
2023-05-16T07:51:13.102Z,15.27
2023-05-16T07:53:41.165Z,15.43
2023-05-16T07:56:08.835Z,15.53
2023-05-16T07:58:36.476Z,15.70
2023-05-16T08:01:04.162Z,15.13
2023-05-16T08:03:33.175Z,15.00
2023-05-16T08:06:00.762Z,15.43
2023-05-16T08:08:28.258Z,15.17
2023-05-16T08:10:55.796Z,16.27
2023-05-16T08:13:23.319Z,15.60
2023-05-16T08:15:50.795Z,15.60
2023-05-16T08:18:20.723Z,15.90
2023-05-16T08:20:51.186Z,15.30
2023-05-16T08:23:18.644Z,15.63
2023-05-16T08:25:46.219Z,16.07
2023-05-16T08:28:13.757Z,15.27
2023-05-16T08:30:42.897Z,15.97
2023-05-16T08:33:11.017Z,15.33
2023-05-16T08:35:38.509Z,15.37
2023-05-16T08:38:07.329Z,15.73
2023-05-16T08:40:34.857Z,16.23
2023-05-16T08:43:02.613Z,15.57
2023-05-16T08:45:31.208Z,14.63
2023-05-16T08:48:01.607Z,15.40
2023-05-16T08:50:31.595Z,14.73
2023-05-16T08:52:59.134Z,14.83
2023-05-16T08:55:28.228Z,14.70
2023-05-16T08:57:55.831Z,15.83
2023-05-16T09:00:23.684Z,14.77
2023-05-16T09:02:51.374Z,14.03
2023-05-16T09:05:18.999Z,14.03
2023-05-16T09:07:46.725Z,13.97
2023-05-16T09:10:14.400Z,13.50
2023-05-16T09:12:43.662Z,14.23
2023-05-16T09:15:11.827Z,14.70
2023-05-16T09:17:42.564Z,14.03
2023-05-16T09:20:11.243Z,13.83
2023-05-16T09:22:38.811Z,14.00
2023-05-16T09:25:08.578Z,15.50
2023-05-16T09:27:41.881Z,13.87
2023-05-16T09:30:11.341Z,14.60
2023-05-16T09:32:44.022Z,14.67
2023-05-16T09:35:12.208Z,14.33
2023-05-16T09:37:44.913Z,13.90
2023-05-16T09:40:12.706Z,14.50
2023-05-16T09:42:40.391Z,14.37
2023-05-16T09:45:08.349Z,14.03
2023-05-16T09:47:38.163Z,13.87
2023-05-16T09:50:08.219Z,14.27
2023-05-16T09:52:35.754Z,13.10
2023-05-16T09:55:04.948Z,14.03
2023-05-16T09:57:32.711Z,13.73
2023-05-16T10:00:01.511Z,14.37
2023-05-16T10:02:29.192Z,16.40
2023-05-16T10:04:57.986Z,16.53
2023-05-16T10:07:25.438Z,16.80
2023-05-16T10:09:53.874Z,16.83
2023-05-16T10:12:24.320Z,17.57
2023-05-16T10:14:51.823Z,17.03
2023-05-16T10:17:19.846Z,18.97
2023-05-16T10:19:48.166Z,19.03
2023-05-16T10:22:17.562Z,18.53
2023-05-16T10:24:46.913Z,18.73
2023-05-16T10:27:17.926Z,19.30
2023-05-16T10:29:54.610Z,17.90
2023-05-16T10:32:24.581Z,16.60
2023-05-16T10:34:52.683Z,16.97
2023-05-16T10:37:21.486Z,15.47
2023-05-16T10:39:49.261Z,17.10
2023-05-16T10:42:18.402Z,17.27
2023-05-16T10:44:51.635Z,17.90
2023-05-16T10:47:22.487Z,17.13
2023-05-16T10:49:49.984Z,17.30
2023-05-16T10:52:18.088Z,19.10
2023-05-16T10:54:51.842Z,18.73
2023-05-16T10:57:22.071Z,17.40
2023-05-16T10:59:50.168Z,18.20
2023-05-16T11:02:25.011Z,17.50
2023-05-16T11:04:53.036Z,17.87
2023-05-16T11:07:21.730Z,17.63
2023-05-16T11:10:03.959Z,17.60
2023-05-16T11:12:37.940Z,19.00
2023-05-16T11:15:18.822Z,17.90
2023-05-16T11:17:46.503Z,16.90
2023-05-16T11:20:25.926Z,18.10
2023-05-16T11:23:13.371Z,18.87
2023-05-16T11:25:42.879Z,20.40
2023-05-16T11:28:11.691Z,20.13
2023-05-16T11:30:42.642Z,18.53
2023-05-16T11:33:10.125Z,18.73
2023-05-16T11:35:38.013Z,18.43
2023-05-16T11:38:05.842Z,19.27
2023-05-16T11:40:33.260Z,19.00
2023-05-16T11:43:04.612Z,16.87
2023-05-16T11:45:33.306Z,16.47
2023-05-16T11:48:04.043Z,16.13
2023-05-16T11:50:31.732Z,15.80
2023-05-16T11:52:59.455Z,15.77
2023-05-16T11:55:41.036Z,14.93
2023-05-16T11:58:12.197Z,15.47
2023-05-16T12:00:48.393Z,15.47
2023-05-16T12:03:16.222Z,14.80
2023-05-16T12:05:51.188Z,14.73
2023-05-16T12:08:18.813Z,15.07
2023-05-16T12:10:46.279Z,16.10
2023-05-16T12:13:15.175Z,16.00
2023-05-16T12:15:42.975Z,15.23
2023-05-16T12:18:10.644Z,14.77
2023-05-16T12:20:38.347Z,15.17
2023-05-16T12:23:08.791Z,14.43
2023-05-16T12:25:37.629Z,13.80
2023-05-16T12:28:07.732Z,14.07
2023-05-16T12:30:36.624Z,13.90
2023-05-16T12:33:07.972Z,14.00
2023-05-16T12:35:36.600Z,12.53
2023-05-16T12:38:05.056Z,11.33
2023-05-16T12:40:32.485Z,10.37
2023-05-16T12:43:00.249Z,9.60
2023-05-16T12:45:29.807Z,9.70
2023-05-16T12:47:58.707Z,9.40
2023-05-16T12:50:28.680Z,9.70
2023-05-16T12:53:00.083Z,9.47
2023-05-16T12:55:28.328Z,9.33
2023-05-16T12:57:56.944Z,9.00
2023-05-16T13:00:24.655Z,8.70
2023-05-16T13:02:52.469Z,8.73
2023-05-16T13:05:23.259Z,8.70
2023-05-16T13:07:51.436Z,8.97
2023-05-16T13:10:19.200Z,8.53
2023-05-16T13:12:47.269Z,8.30
2023-05-16T13:15:15.066Z,8.93
2023-05-16T13:17:43.973Z,7.80
2023-05-16T13:20:13.527Z,7.80
2023-05-16T13:22:42.582Z,7.53
2023-05-16T13:25:11.080Z,7.60
2023-05-16T13:27:38.549Z,7.30
2023-05-16T13:30:06.476Z,7.10
2023-05-16T13:32:33.971Z,7.47
2023-05-16T13:35:01.605Z,8.00
2023-05-16T13:37:29.027Z,8.13
2023-05-16T13:39:57.851Z,8.13
2023-05-16T13:42:25.563Z,8.17
2023-05-16T13:44:53.072Z,8.47
2023-05-16T13:47:20.830Z,9.17
2023-05-16T13:49:48.787Z,8.60
2023-05-16T13:52:16.364Z,9.40
2023-05-16T13:54:43.762Z,8.87
2023-05-16T13:57:12.780Z,9.60
2023-05-16T14:02:10.631Z,10.23
2023-05-16T14:04:38.122Z,9.97
2023-05-16T14:07:05.860Z,9.73
2023-05-16T14:09:34.977Z,10.80
2023-05-16T14:12:04.165Z,10.87
2023-05-16T14:14:32.982Z,10.80
2023-05-16T14:17:00.444Z,11.03
2023-05-16T14:19:28.102Z,11.10
2023-05-16T14:21:56.659Z,10.30
2023-05-16T14:24:24.059Z,11.10
2023-05-16T14:26:57.500Z,10.93
2023-05-16T14:29:25.460Z,10.77
2023-05-16T14:31:54.383Z,11.23
2023-05-16T14:34:23.439Z,11.70
2023-05-16T14:36:51.117Z,10.77
2023-05-16T14:39:18.663Z,9.37
2023-05-16T14:41:46.494Z,8.17
2023-05-16T14:44:14.011Z,8.10
2023-05-16T14:46:41.668Z,7.70
2023-05-16T14:49:11.042Z,7.20
2023-05-16T14:51:38.544Z,7.30
2023-05-16T14:54:06.368Z,6.80
2023-05-16T14:56:33.751Z,7.33
2023-05-16T14:59:01.673Z,5.87
2023-05-16T15:01:29.265Z,5.87
2023-05-16T15:03:56.968Z,5.17
2023-05-16T15:06:25.838Z,5.50
2023-05-16T15:08:53.331Z,5.30
2023-05-16T15:11:21.588Z,5.40
2023-05-16T15:13:49.226Z,5.40
2023-05-16T15:16:16.814Z,4.80
2023-05-16T15:18:44.460Z,4.40
2023-05-16T15:21:12.005Z,4.20
2023-05-16T15:23:42.140Z,3.90
2023-05-16T15:26:09.594Z,3.47
2023-05-16T15:28:37.426Z,3.57
2023-05-16T15:31:05.417Z,3.70
2023-05-16T15:33:32.848Z,3.43
2023-05-16T15:36:00.306Z,3.60
2023-05-16T15:38:27.853Z,3.63
2023-05-16T15:41:13.651Z,4.20
2023-05-16T15:43:44.474Z,4.40
2023-05-16T15:46:12.037Z,4.80
2023-05-16T15:48:42.593Z,5.40
2023-05-16T15:51:10.121Z,5.83
2023-05-16T15:53:37.567Z,5.40
2023-05-16T15:56:07.015Z,5.77
2023-05-16T15:58:34.611Z,5.20
2023-05-16T16:01:02.123Z,5.27
2023-05-16T16:03:29.714Z,5.70
2023-05-16T16:05:57.278Z,5.60
2023-05-16T16:08:25.280Z,5.30
2023-05-16T16:10:52.768Z,6.07
2023-05-16T16:13:22.895Z,5.60
2023-05-16T16:15:50.669Z,5.90
2023-05-16T16:18:18.231Z,4.40
2023-05-16T16:20:45.772Z,3.40
2023-05-16T16:23:13.268Z,2.80
2023-05-16T16:25:40.892Z,2.47
2023-05-16T16:28:08.344Z,2.57
2023-05-16T16:30:37.230Z,2.30
2023-05-16T16:33:04.789Z,2.30
2023-05-16T16:35:32.345Z,2.40
2023-05-16T16:38:06.814Z,2.20
2023-05-16T16:40:35.244Z,1.87
2023-05-16T16:43:04.048Z,1.80
2023-05-16T16:45:31.629Z,2.00
2023-05-16T16:48:00.622Z,1.70
2023-05-16T16:50:28.209Z,1.87
2023-05-16T16:52:55.784Z,2.10
2023-05-16T16:55:23.272Z,2.03
2023-05-16T16:57:50.965Z,2.23
2023-05-16T17:00:19.230Z,2.10
2023-05-16T17:02:46.928Z,2.17
2023-05-16T17:05:15.861Z,2.37
2023-05-16T17:07:44.023Z,2.50
2023-05-16T17:10:11.670Z,2.80
2023-05-16T17:12:46.025Z,2.67
2023-05-16T17:15:13.679Z,3.23
2023-05-16T17:17:41.319Z,3.37
2023-05-16T17:20:09.987Z,3.43
2023-05-16T17:22:38.858Z,4.20
2023-05-16T17:25:06.785Z,4.43
2023-05-16T17:27:34.522Z,5.33
2023-05-16T17:30:02.071Z,5.20
2023-05-16T17:32:29.593Z,5.47
2023-05-16T17:34:57.423Z,5.27
2023-05-16T17:37:24.935Z,5.23
2023-05-16T17:39:56.550Z,5.07
2023-05-16T17:42:24.099Z,4.63
2023-05-16T17:44:51.557Z,4.20
2023-05-16T17:47:19.621Z,4.73
2023-05-16T17:49:48.536Z,3.87
2023-05-16T17:52:16.028Z,4.50
2023-05-16T17:54:43.548Z,4.40
2023-05-16T17:57:12.974Z,4.30
2023-05-16T17:59:40.635Z,4.40
2023-05-16T18:02:09.779Z,3.50
2023-05-16T18:04:37.857Z,3.60
2023-05-16T18:07:05.539Z,4.17
2023-05-16T18:09:34.168Z,3.80
2023-05-16T18:12:01.685Z,3.90
2023-05-16T18:14:30.528Z,3.70
2023-05-16T18:16:57.991Z,3.40
2023-05-16T18:19:25.642Z,3.40
2023-05-16T18:21:53.226Z,3.30
2023-05-16T18:24:20.873Z,4.10
2023-05-16T18:26:49.410Z,3.40
2023-05-16T18:29:16.918Z,3.47
2023-05-16T18:31:45.854Z,3.43
2023-05-16T18:34:13.327Z,3.40
2023-05-16T18:36:40.778Z,3.53
2023-05-16T18:39:10.505Z,3.47
2023-05-16T18:41:37.939Z,3.70
2023-05-16T18:44:05.559Z,2.70
2023-05-16T18:46:33.085Z,2.90
2023-05-16T18:49:02.039Z,2.47
2023-05-16T18:51:29.631Z,2.90
2023-05-16T18:53:57.099Z,2.80
2023-05-16T18:56:24.577Z,2.50
2023-05-16T18:58:52.034Z,3.00
2023-05-16T19:01:22.030Z,2.87
2023-05-16T19:03:49.602Z,3.10
2023-05-16T19:06:18.467Z,2.60
2023-05-16T19:08:48.154Z,3.10
2023-05-16T19:11:15.839Z,3.07
2023-05-16T19:13:43.295Z,3.10
2023-05-16T19:16:10.950Z,3.77
2023-05-16T19:18:38.612Z,3.13
2023-05-16T19:21:07.583Z,3.20
2023-05-16T19:23:36.517Z,3.13
2023-05-16T19:26:04.002Z,3.63
2023-05-16T19:28:32.364Z,2.93
2023-05-16T19:30:59.781Z,3.30
2023-05-16T19:33:27.202Z,3.50
2023-05-16T19:35:57.565Z,3.40
2023-05-16T19:38:25.813Z,3.43
2023-05-16T19:40:54.905Z,3.40
2023-05-16T19:43:22.357Z,3.47
2023-05-16T19:45:49.984Z,3.30
2023-05-16T19:48:17.527Z,3.40
2023-05-16T19:50:45.881Z,3.60
2023-05-16T19:53:13.349Z,3.60
2023-05-16T19:55:40.978Z,3.37
2023-05-16T19:58:09.776Z,3.33
2023-05-16T20:00:37.254Z,3.23
2023-05-16T20:03:04.909Z,3.43
2023-05-16T20:05:32.382Z,3.23
2023-05-16T20:07:59.882Z,3.60
2023-05-16T20:10:27.340Z,3.77
2023-05-16T20:12:54.798Z,3.23
2023-05-16T20:15:23.599Z,3.40
2023-05-16T20:17:51.095Z,3.00
2023-05-16T20:20:18.684Z,3.43
2023-05-16T20:22:46.118Z,3.37
2023-05-16T20:25:13.800Z,3.50
2023-05-16T20:27:41.239Z,3.40
2023-05-16T20:30:09.722Z,3.30
2023-05-16T20:32:39.032Z,2.90
2023-05-16T20:35:09.100Z,3.07
2023-05-16T20:37:36.638Z,3.30
2023-05-16T20:40:04.819Z,3.13
2023-05-16T20:42:32.222Z,2.93
2023-05-16T20:44:59.642Z,3.07
2023-05-16T20:47:27.222Z,2.90
2023-05-16T20:49:56.435Z,2.67
2023-05-16T20:52:24.129Z,3.00
2023-05-16T20:54:51.587Z,3.00
2023-05-16T20:57:19.001Z,2.87
2023-05-16T20:59:46.485Z,2.83
2023-05-16T21:02:13.930Z,3.07
2023-05-16T21:04:41.428Z,3.10
2023-05-16T21:07:11.114Z,3.47
2023-05-16T21:09:39.555Z,3.53
2023-05-16T21:12:07.349Z,3.00
2023-05-16T21:14:34.825Z,3.10
2023-05-16T21:17:02.382Z,2.90
2023-05-16T21:19:33.946Z,3.30
2023-05-16T21:22:03.172Z,3.10
2023-05-16T21:24:35.155Z,3.07
2023-05-16T21:27:02.904Z,3.00
2023-05-16T21:29:30.453Z,3.00
2023-05-16T21:31:58.575Z,3.37
2023-05-16T21:34:26.023Z,2.87
2023-05-16T21:36:53.737Z,3.30
2023-05-16T21:39:21.161Z,3.10
2023-05-16T21:41:50.047Z,4.13
2023-05-16T21:44:18.436Z,2.80
2023-05-16T21:46:46.018Z,2.90
2023-05-16T21:49:13.490Z,3.03
2023-05-16T21:51:41.022Z,2.73
2023-05-16T21:54:08.519Z,2.93
2023-05-16T21:56:36.000Z,3.27
2023-05-16T21:59:04.768Z,3.20
2023-05-16T22:01:32.303Z,3.20
2023-05-16T22:03:59.858Z,3.13
2023-05-16T22:06:27.526Z,3.37
2023-05-16T22:08:55.405Z,3.40
2023-05-16T22:11:22.919Z,3.07
2023-05-16T22:13:51.261Z,2.83
2023-05-16T22:17:05.167Z,3.07
2023-05-16T22:19:34.021Z,3.10
2023-05-16T22:22:01.686Z,2.93
2023-05-16T22:24:29.197Z,3.10
2023-05-16T22:26:56.678Z,2.80
2023-05-16T22:29:24.129Z,2.80
2023-05-16T22:31:51.798Z,2.87
2023-05-16T22:34:19.255Z,2.50
2023-05-16T22:36:48.113Z,2.30
2023-05-16T22:39:15.561Z,2.80
2023-05-16T22:41:43.145Z,2.57
2023-05-16T22:44:10.627Z,2.40
2023-05-16T22:46:38.123Z,2.53
2023-05-16T22:49:05.684Z,2.60
2023-05-16T22:51:33.320Z,2.23
2023-05-16T22:54:02.099Z,2.37
2023-05-16T22:56:29.593Z,2.20
2023-05-16T22:58:57.082Z,2.60
2023-05-16T23:01:24.607Z,2.20
2023-05-16T23:03:52.188Z,2.17
2023-05-16T23:06:19.723Z,2.50
2023-05-16T23:08:47.197Z,2.60
2023-05-16T23:11:16.109Z,2.30
2023-05-16T23:13:43.630Z,2.50
2023-05-16T23:16:11.128Z,2.70
2023-05-16T23:18:38.858Z,2.80
2023-05-16T23:21:06.502Z,2.47
2023-05-16T23:23:34.023Z,2.30
2023-05-16T23:26:01.507Z,2.20
2023-05-16T23:28:30.327Z,2.40
2023-05-16T23:30:57.811Z,2.03
2023-05-16T23:33:25.311Z,2.43
2023-05-16T23:35:52.738Z,2.40
2023-05-16T23:38:20.233Z,2.53
2023-05-16T23:40:47.706Z,2.20
2023-05-16T23:43:15.671Z,2.33
2023-05-16T23:45:44.567Z,2.10
2023-05-16T23:48:12.143Z,1.90
2023-05-16T23:50:39.763Z,1.97
2023-05-16T23:53:07.264Z,1.90
2023-05-16T23:55:34.720Z,2.23
2023-05-16T23:58:02.202Z,2.47
